KLOL/LOL METAR and TAF weather

Enter ICAO airport designator
Station Type Date Time Source
KLOL METAR 2021/04/17 00:53 UTC NOAA

KLOL 170053Z AUTO 03009KT 10SM OVC110 16/M08 A3004 RMK AO2 SLP158 T01611078


Station Type Date Time Source
KLOL Decoded METAR 2021/04/17 00:53 UTC NOAA

LOVELOCK DERBY FIELD, NV, United States (KLOL) 40-04N 118-34W 1189M
Apr 16, 2021 - 08:53 PM EDT / 2021.04.17 0053 UTC
Wind: from the NNE (030 degrees) at 10 MPH (9 KT):0
Visibility: 10 mile(s):0
Sky conditions: overcast
Temperature: 61.0 F (16.1 C)
Dew Point: 18.0 F (-7.8 C)
Relative Humidity: 18%
Pressure (altimeter): 30.04 in. Hg (1017 hPa)
ob: KLOL 170053Z AUTO 03009KT 10SM OVC110 16/M08 A3004 RMK AO2 SLP158 T01611078
cycle: 1

Station Type Date Time Source
KLOL TAF 2010/01/05 05:22 UTC NOAA

TAF KLOL 050522Z 0506/0606 00000KT 1/4SM FZFG VV001
FM052000 VRB03KT 3SM BR OVC002
AMD NOT SKED

Example: see airport list